Time;durP1;ratioP1;P1;durP2;ratioP2;P2;SDS_P1;SDS_P2;PMS_P1;PMS_P2;Temp;Humidity;BMP_temperature;BMP_pressure;BME280_temperature;BME280_humidity;BME280_pressure;Samples;Min_cycle;Max_cycle;Signal;HPM_P1;HPM_P2
2023/01/25 00:02:06;;;;;;;23.60;17.08;;;2.90;99.90;;;;;;5056066;28;20351;-79
2023/01/25 00:04:34;;;;;;;25.23;19.02;;;2.90;99.90;;;;;;5057122;28;20447;-79
2023/01/25 00:07:01;;;;;;;24.73;18.58;;;2.80;99.90;;;;;;5039597;28;20080;-82
2023/01/25 00:09:27;;;;;;;24.85;18.13;;;2.70;99.90;;;;;;5038905;28;20092;-79
2023/01/25 00:11:56;;;;;;;29.45;21.00;;;2.60;99.90;;;;;;5043841;28;20042;-79
2023/01/25 00:14:23;;;;;;;26.58;19.23;;;2.60;99.90;;;;;;5036847;28;20041;-79
2023/01/25 00:16:50;;;;;;;28.73;20.35;;;2.60;99.90;;;;;;5035795;28;20053;-82
2023/01/25 00:19:17;;;;;;;28.23;21.00;;;2.50;99.90;;;;;;5036794;28;20123;-78
2023/01/25 00:21:43;;;;;;;23.33;17.77;;;2.60;99.90;;;;;;5019282;28;20045;-79
2023/01/25 00:26:58;;;;;;;24.55;18.38;;;2.60;99.90;;;;;;5036951;28;20065;-81
2023/01/25 00:29:25;;;;;;;24.23;17.80;;;2.60;99.90;;;;;;5035718;28;20052;-78
2023/01/25 00:31:51;;;;;;;26.95;17.27;;;2.70;99.90;;;;;;5019563;28;20063;-82
2023/01/25 00:34:18;;;;;;;27.58;19.50;;;2.70;99.90;;;;;;5036509;28;20460;-80
2023/01/25 00:36:45;;;;;;;26.20;19.35;;;2.70;99.90;;;;;;5035597;28;20041;-80
2023/01/25 00:39:11;;;;;;;29.80;20.42;;;2.70;99.90;;;;;;5018944;28;20487;-82
2023/01/25 00:41:38;;;;;;;29.58;19.50;;;2.70;99.90;;;;;;5036337;28;20061;-79
2023/01/25 00:44:06;;;;;;;31.58;20.10;;;2.70;99.90;;;;;;5035168;28;20041;-82
2023/01/25 00:46:33;;;;;;;27.27;20.33;;;2.60;99.90;;;;;;5019212;28;20033;-81
2023/01/25 00:48:59;;;;;;;29.85;19.00;;;2.60;99.90;;;;;;5018011;28;20041;-79
2023/01/25 00:51:26;;;;;;;26.77;20.10;;;2.70;99.90;;;;;;5019578;28;20041;-82
2023/01/25 00:53:53;;;;;;;26.08;19.05;;;2.60;99.90;;;;;;5018806;28;20088;-78
2023/01/25 00:56:19;;;;;;;26.75;18.42;;;2.70;99.90;;;;;;5017837;28;20049;-79
2023/01/25 00:58:46;;;;;;;22.23;17.33;;;2.60;99.90;;;;;;5018691;28;20041;-79
2023/01/25 01:01:15;;;;;;;27.55;19.70;;;2.70;99.90;;;;;;5019542;28;20373;-78
2023/01/25 01:03:43;;;;;;;29.48;19.65;;;2.70;99.90;;;;;;5017773;28;20044;-80
2023/01/25 01:06:12;;;;;;;26.93;19.53;;;2.70;99.90;;;;;;5018740;28;20069;-78
2023/01/25 01:08:38;;;;;;;31.88;20.40;;;2.70;99.90;;;;;;5018477;28;20275;-79
2023/01/25 01:11:05;;;;;;;23.77;17.52;;;2.70;99.90;;;;;;5023996;28;20044;-79
2023/01/25 01:13:33;;;;;;;26.25;19.63;;;2.70;99.90;;;;;;5055349;28;20562;-81
2023/01/25 01:15:59;;;;;;;26.15;19.40;;;2.70;99.90;;;;;;5054712;28;20052;-78
2023/01/25 01:18:26;;;;;;;27.48;19.70;;;2.70;99.90;;;;;;5055497;28;20036;-82
2023/01/25 01:20:53;;;;;;;27.38;18.83;;;2.70;99.90;;;;;;5055475;28;20131;-82
2023/01/25 01:23:21;;;;;;;25.05;18.17;;;2.80;99.90;;;;;;5025762;28;20034;-79
2023/01/25 01:25:48;;;;;;;24.90;18.42;;;2.80;99.90;;;;;;5017868;28;20065;-81
2023/01/25 01:28:15;;;;;;;23.77;17.55;;;2.80;99.90;;;;;;5018000;28;20079;-82
2023/01/25 01:30:42;;;;;;;29.33;18.35;;;2.80;99.90;;;;;;5017550;28;20136;-78
2023/01/25 01:33:09;;;;;;;27.05;19.90;;;2.80;99.90;;;;;;5035171;28;20120;-81
2023/01/25 01:35:36;;;;;;;26.58;18.63;;;2.80;99.90;;;;;;5017082;28;20060;-82
2023/01/25 01:38:02;;;;;;;27.13;19.73;;;2.80;99.90;;;;;;5017868;28;20049;-79
2023/01/25 01:40:29;;;;;;;29.02;19.10;;;2.70;99.90;;;;;;5001783;28;20468;-79
2023/01/25 01:42:57;;;;;;;26.33;18.83;;;2.80;99.90;;;;;;5000446;28;20037;-81
2023/01/25 01:45:24;;;;;;;29.65;21.25;;;2.70;99.90;;;;;;5018606;28;20115;-80
2023/01/25 01:47:51;;;;;;;30.33;21.08;;;2.70;99.90;;;;;;5035038;28;20052;-80
2023/01/25 01:50:18;;;;;;;28.77;19.40;;;2.70;99.90;;;;;;5016893;28;20053;-78
2023/01/25 01:52:46;;;;;;;26.17;19.48;;;2.70;99.90;;;;;;5017439;28;20099;-82
2023/01/25 01:55:13;;;;;;;25.90;18.70;;;2.70;99.90;;;;;;5001344;28;20103;-82
2023/01/25 01:57:41;;;;;;;26.67;19.73;;;2.70;99.90;;;;;;5017082;28;20045;-82
2023/01/25 02:00:09;;;;;;;26.55;19.65;;;2.70;99.90;;;;;;5017494;28;20045;-80
2023/01/25 02:02:40;;;;;;;25.67;18.75;;;2.70;99.90;;;;;;5016301;28;20482;-81
2023/01/25 02:05:08;;;;;;;26.75;18.77;;;2.70;99.90;;;;;;5017720;28;20124;-80
2023/01/25 02:07:35;;;;;;;28.40;19.95;;;2.70;99.90;;;;;;5001371;28;20038;-81
2023/01/25 02:10:02;;;;;;;25.92;19.65;;;2.70;99.90;;;;;;5034134;28;20037;-79
2023/01/25 02:12:28;;;;;;;26.00;18.90;;;2.70;99.90;;;;;;5052588;28;20363;-79
2023/01/25 02:14:55;;;;;;;25.67;19.17;;;2.70;99.90;;;;;;5037251;28;20374;-79
2023/01/25 02:17:22;;;;;;;29.30;18.73;;;2.70;99.90;;;;;;5053812;28;20056;-81
2023/01/25 02:19:48;;;;;;;26.90;19.27;;;2.70;99.90;;;;;;5054876;28;20440;-79
2023/01/25 02:22:15;;;;;;;29.50;20.00;;;2.60;99.90;;;;;;5036016;28;20116;-81
2023/01/25 02:24:42;;;;;;;28.55;20.42;;;2.60;99.90;;;;;;5037398;28;20486;-80
2023/01/25 02:27:08;;;;;;;28.70;20.42;;;2.60;99.90;;;;;;5054779;28;20048;-80
2023/01/25 02:29:35;;;;;;;28.02;19.48;;;2.50;99.90;;;;;;5036172;28;20079;-78
2023/01/25 02:32:02;;;;;;;27.80;18.10;;;2.50;99.90;;;;;;5020389;28;20051;-80
2023/01/25 02:34:29;;;;;;;29.08;19.70;;;2.50;99.90;;;;;;5036794;28;20475;-82
2023/01/25 02:36:56;;;;;;;27.55;19.83;;;2.60;99.90;;;;;;5036844;28;20056;-80
2023/01/25 02:39:25;;;;;;;28.52;19.27;;;2.60;99.90;;;;;;5037163;28;20122;-78
2023/01/25 02:41:52;;;;;;;29.73;21.85;;;2.60;99.90;;;;;;5036659;28;20506;-80
2023/01/25 02:44:19;;;;;;;25.50;17.63;;;2.70;99.90;;;;;;5035848;28;20434;-82
2023/01/25 02:46:46;;;;;;;25.73;17.85;;;2.70;99.90;;;;;;5037124;28;20415;-81
2023/01/25 02:49:13;;;;;;;30.13;20.60;;;2.70;99.90;;;;;;5036381;28;20048;-81
2023/01/25 02:51:40;;;;;;;27.80;20.30;;;2.80;99.90;;;;;;5054308;28;20041;-79
2023/01/25 02:54:08;;;;;;;28.50;20.10;;;2.80;99.90;;;;;;5036666;28;20041;-82
2023/01/25 02:56:35;;;;;;;27.35;20.42;;;2.80;99.90;;;;;;5035824;28;20480;-82
2023/01/25 02:59:04;;;;;;;29.05;21.27;;;2.80;99.90;;;;;;5020369;28;20060;-79
2023/01/25 03:01:32;;;;;;;27.73;19.80;;;2.80;99.90;;;;;;5036591;28;20049;-80
2023/01/25 03:04:02;;;;;;;27.70;21.05;;;2.80;99.90;;;;;;5035667;28;20467;-80
2023/01/25 03:06:29;;;;;;;27.77;20.40;;;2.80;99.90;;;;;;5036682;28;20122;-80
2023/01/25 03:08:56;;;;;;;27.88;20.58;;;2.80;99.90;;;;;;5035721;28;20049;-80
2023/01/25 03:11:24;;;;;;;31.63;21.20;;;2.90;99.90;;;;;;5036655;28;20041;-79
2023/01/25 03:13:52;;;;;;;31.35;21.70;;;2.80;99.90;;;;;;5038147;28;20136;-80
2023/01/25 03:16:19;;;;;;;30.27;20.63;;;2.90;99.90;;;;;;5060845;28;20479;-80
2023/01/25 03:18:47;;;;;;;30.52;21.45;;;2.90;99.90;;;;;;5077011;28;20059;-79
2023/01/25 03:21:14;;;;;;;31.30;21.20;;;2.90;99.90;;;;;;5076860;28;20041;-81
2023/01/25 03:23:41;;;;;;;29.85;20.38;;;2.90;99.90;;;;;;5075529;28;20064;-80
2023/01/25 03:26:09;;;;;;;26.65;19.98;;;2.90;99.90;;;;;;5077049;28;20094;-79
2023/01/25 03:28:41;;;;;;;31.67;22.02;;;2.90;99.90;;;;;;5077089;28;20032;-81
2023/01/25 03:31:07;;;;;;;25.85;18.80;;;2.90;99.90;;;;;;5076769;28;20072;-79
2023/01/25 03:33:34;;;;;;;26.23;19.23;;;2.90;99.90;;;;;;5076246;28;20050;-79
2023/01/25 03:36:01;;;;;;;29.70;20.58;;;2.80;99.90;;;;;;5075772;28;20152;-78
2023/01/25 03:38:28;;;;;;;26.42;18.70;;;2.80;99.90;;;;;;5077768;28;20131;-82
2023/01/25 03:40:57;;;;;;;24.40;16.95;;;2.80;99.90;;;;;;5076501;28;20449;-82
2023/01/25 03:43:24;;;;;;;24.33;18.23;;;2.80;99.90;;;;;;5058711;28;20036;-80
2023/01/25 03:45:52;;;;;;;31.95;19.08;;;2.80;99.90;;;;;;5076416;28;20474;-79
2023/01/25 03:48:18;;;;;;;27.88;20.58;;;2.80;99.90;;;;;;5076434;28;20036;-79
2023/01/25 03:50:45;;;;;;;35.88;22.15;;;2.80;99.90;;;;;;5075473;28;20060;-81
2023/01/25 03:56:08;;;;;;;30.63;21.08;;;2.80;99.90;;;;;;5075392;28;20044;-82
2023/01/25 03:58:36;;;;;;;32.13;22.75;;;2.80;99.90;;;;;;5059699;28;20056;-78
2023/01/25 04:01:03;;;;;;;31.10;22.20;;;2.80;99.90;;;;;;5076226;28;20122;-81
2023/01/25 04:03:30;;;;;;;30.55;22.73;;;2.80;99.90;;;;;;5075047;28;20048;-78
2023/01/25 04:05:58;;;;;;;29.70;21.75;;;2.70;99.90;;;;;;5076110;28;20045;-79
2023/01/25 04:08:26;;;;;;;31.88;23.50;;;2.70;99.90;;;;;;5076067;28;20432;-82
2023/01/25 04:10:53;;;;;;;32.50;21.92;;;2.70;99.90;;;;;;5058648;28;20044;-80
2023/01/25 04:16:10;;;;;;;31.30;20.80;;;2.70;99.90;;;;;;5075009;28;20076;-79
2023/01/25 04:18:55;;;;;;;34.85;22.77;;;2.60;99.90;;;;;;5075970;28;20317;-80
2023/01/25 04:21:22;;;;;;;33.42;22.73;;;2.50;99.90;;;;;;5059060;28;20053;-78
2023/01/25 04:23:49;;;;;;;34.55;24.20;;;2.50;99.90;;;;;;5057712;28;20041;-80
2023/01/25 04:26:16;;;;;;;36.00;26.20;;;2.50;99.90;;;;;;5076765;28;20520;-79
2023/01/25 04:28:49;;;;;;;32.13;23.08;;;2.40;99.90;;;;;;5074796;28;20040;-80
2023/01/25 04:31:16;;;;;;;37.55;27.17;;;2.40;99.90;;;;;;5076567;28;20475;-78
2023/01/25 04:33:44;;;;;;;33.28;24.40;;;2.30;99.90;;;;;;5058818;28;20471;-79
2023/01/25 04:36:13;;;;;;;39.20;25.88;;;2.30;99.90;;;;;;5058644;28;20072;-79
2023/01/25 04:38:41;;;;;;;40.05;26.98;;;2.40;99.90;;;;;;5075516;28;20135;-79
2023/01/25 04:41:09;;;;;;;41.33;25.55;;;2.40;99.90;;;;;;5059431;28;20411;-80
2023/01/25 04:43:37;;;;;;;38.40;26.05;;;2.30;99.90;;;;;;5074212;28;20037;-79
2023/01/25 04:46:07;;;;;;;36.33;24.88;;;2.30;99.90;;;;;;5075237;28;20397;-79
2023/01/25 04:48:34;;;;;;;35.55;24.15;;;2.30;99.90;;;;;;5075155;28;20061;-80
2023/01/25 04:51:04;;;;;;;34.72;25.08;;;2.30;99.90;;;;;;5075058;28;20486;-79
2023/01/25 04:53:35;;;;;;;35.85;24.83;;;2.30;99.90;;;;;;5074995;28;20052;-81
2023/01/25 04:56:04;;;;;;;36.40;25.30;;;2.40;99.90;;;;;;5074204;28;20389;-81
2023/01/25 04:58:39;;;;;;;37.95;24.38;;;2.40;99.90;;;;;;5059820;28;20121;-81
2023/01/25 05:01:06;;;;;;;36.85;24.48;;;2.50;99.90;;;;;;5074930;28;20044;-78
2023/01/25 05:06:38;;;;;;;34.47;22.27;;;2.40;99.90;;;;;;5075105;28;20044;-79
2023/01/25 05:09:04;;;;;;;33.58;22.88;;;2.40;99.90;;;;;;5073849;28;20040;-80
2023/01/25 05:11:33;;;;;;;37.88;24.85;;;2.40;99.90;;;;;;5074572;28;20111;-79
2023/01/25 05:14:05;;;;;;;32.42;22.33;;;2.40;99.90;;;;;;5058902;28;20923;-81
2023/01/25 05:16:32;;;;;;;35.95;24.60;;;2.50;99.90;;;;;;5073623;28;20412;-79
2023/01/25 05:19:00;;;;;;;34.17;24.67;;;2.40;99.90;;;;;;5074683;28;20043;-80
2023/01/25 05:24:21;;;;;;;33.22;23.77;;;2.50;99.90;;;;;;5074744;28;20041;-81
2023/01/25 05:27:02;;;;;;;35.22;24.27;;;2.40;99.90;;;;;;5058356;28;20048;-81
2023/01/25 05:29:46;;;;;;;40.90;24.58;;;2.40;99.90;;;;;;5074163;28;20044;-80
2023/01/25 05:32:13;;;;;;;36.10;24.85;;;2.40;99.90;;;;;;5074261;28;20044;-80
2023/01/25 05:34:40;;;;;;;37.35;26.27;;;2.40;99.90;;;;;;5076144;28;20052;-82
2023/01/25 05:37:08;;;;;;;38.70;26.33;;;2.40;99.90;;;;;;5073049;28;20455;-78
2023/01/25 05:39:38;;;;;;;36.25;25.60;;;2.40;99.90;;;;;;5058586;28;20044;-77
2023/01/25 05:42:06;;;;;;;37.90;25.52;;;2.40;99.90;;;;;;5073101;28;20060;-80
2023/01/25 05:44:34;;;;;;;39.88;25.90;;;2.40;99.90;;;;;;5075039;28;20102;-78
2023/01/25 05:47:00;;;;;;;37.10;26.45;;;2.40;99.90;;;;;;5075086;28;20040;-81
2023/01/25 05:49:27;;;;;;;38.35;24.83;;;2.40;99.90;;;;;;5073833;28;20032;-80
2023/01/25 05:51:54;;;;;;;40.75;27.13;;;2.40;99.90;;;;;;5057393;28;20052;-78
2023/01/25 05:54:22;;;;;;;38.55;25.35;;;2.40;99.90;;;;;;5057472;28;20139;-80
2023/01/25 05:56:57;;;;;;;40.70;27.27;;;2.40;99.90;;;;;;5073365;28;20497;-81
2023/01/25 05:59:25;;;;;;;39.70;27.05;;;2.40;99.90;;;;;;5074001;28;20538;-81
2023/01/25 06:01:52;;;;;;;39.15;25.77;;;2.40;99.90;;;;;;5057432;28;20094;-81
2023/01/25 06:04:19;;;;;;;36.17;24.50;;;2.40;99.90;;;;;;5072973;28;20058;-79
2023/01/25 06:06:46;;;;;;;36.70;26.15;;;2.30;99.90;;;;;;5074127;28;20051;-80
2023/01/25 06:09:13;;;;;;;39.33;26.08;;;2.30;99.90;;;;;;5074007;28;20463;-79
2023/01/25 06:11:41;;;;;;;37.65;25.40;;;2.40;99.90;;;;;;5057084;28;20494;-78
2023/01/25 06:14:07;;;;;;;38.63;25.88;;;2.40;99.90;;;;;;5074430;28;20363;-78
2023/01/25 06:16:34;;;;;;;38.78;25.40;;;2.30;99.90;;;;;;5056510;28;20393;-78
2023/01/25 06:19:19;;;;;;;37.08;24.83;;;2.30;99.90;;;;;;5074768;28;20059;-78
2023/01/25 06:22:21;;;;;;;41.70;26.80;;;2.40;99.90;;;;;;5064729;28;20045;-78
2023/01/25 06:24:48;;;;;;;42.00;27.70;;;2.40;99.90;;;;;;5075239;28;20043;-78
2023/01/25 06:27:14;;;;;;;37.63;26.10;;;2.40;99.90;;;;;;5073901;28;20044;-77
2023/01/25 06:29:42;;;;;;;39.38;27.38;;;2.30;99.90;;;;;;5074371;28;20128;-78
2023/01/25 06:32:09;;;;;;;38.55;27.30;;;2.30;99.90;;;;;;5073571;28;20044;-77
2023/01/25 06:34:37;;;;;;;37.25;25.40;;;2.30;99.90;;;;;;5073556;28;20052;-77
2023/01/25 06:37:07;;;;;;;38.83;25.95;;;2.30;99.90;;;;;;5072690;28;20059;-79
2023/01/25 06:39:34;;;;;;;43.40;28.90;;;2.30;99.90;;;;;;5074233;28;20340;-77
2023/01/25 06:42:00;;;;;;;43.22;28.25;;;2.30;99.90;;;;;;5073054;28;20037;-77
2023/01/25 06:44:28;;;;;;;43.15;27.45;;;2.30;99.90;;;;;;5074477;28;20055;-78
2023/01/25 06:46:56;;;;;;;41.15;28.40;;;2.30;99.90;;;;;;5074101;28;20047;-78
2023/01/25 06:49:23;;;;;;;42.88;30.50;;;2.30;99.90;;;;;;5077668;28;20036;-77
2023/01/25 06:51:50;;;;;;;41.38;29.42;;;2.30;99.90;;;;;;5060516;28;20432;-77
2023/01/25 06:54:18;;;;;;;42.65;28.58;;;2.30;99.90;;;;;;5078664;28;20051;-78
2023/01/25 06:56:45;;;;;;;43.45;28.77;;;2.30;99.90;;;;;;5077694;28;20044;-77
2023/01/25 06:59:12;;;;;;;41.95;29.80;;;2.30;99.90;;;;;;5077457;28;20040;-78
2023/01/25 07:01:38;;;;;;;41.97;28.63;;;2.30;99.90;;;;;;5078266;28;20040;-78
2023/01/25 07:04:05;;;;;;;51.30;32.53;;;2.30;99.90;;;;;;5060437;28;20053;-77
2023/01/25 07:06:34;;;;;;;42.10;29.17;;;2.20;99.90;;;;;;5077148;28;20047;-78
2023/01/25 07:09:01;;;;;;;45.88;29.85;;;2.20;99.90;;;;;;5077529;28;20433;-78
2023/01/25 07:11:27;;;;;;;44.45;30.13;;;2.20;99.90;;;;;;5078130;28;20052;-78
2023/01/25 07:13:55;;;;;;;41.67;27.95;;;2.30;99.90;;;;;;5077018;28;20047;-77
2023/01/25 07:16:22;;;;;;;51.15;30.45;;;2.30;99.90;;;;;;5076277;28;20064;-77
2023/01/25 07:18:48;;;;;;;50.50;31.48;;;2.30;99.90;;;;;;5077676;28;20045;-77
2023/01/25 07:21:15;;;;;;;53.40;34.60;;;2.20;99.90;;;;;;5077221;28;20056;-78
2023/01/25 07:23:42;;;;;;;49.40;32.08;;;2.20;99.90;;;;;;5077195;28;20044;-78
2023/01/25 07:26:08;;;;;;;50.72;32.40;;;2.10;99.90;;;;;;5076816;28;20047;-77
2023/01/25 07:28:35;;;;;;;54.10;31.05;;;2.10;99.90;;;;;;5078151;28;20051;-78
2023/01/25 07:31:02;;;;;;;49.88;32.10;;;2.10;99.90;;;;;;5076944;28;20378;-78
2023/01/25 07:36:14;;;;;;;50.40;30.80;;;2.10;99.90;;;;;;5077124;28;20040;-81
2023/01/25 07:38:41;;;;;;;49.08;30.15;;;2.10;99.90;;;;;;5077012;28;20032;-77
2023/01/25 07:41:08;;;;;;;45.78;30.38;;;2.10;99.90;;;;;;5076918;28;20043;-77
2023/01/25 07:43:34;;;;;;;49.03;31.17;;;2.00;99.90;;;;;;5065531;28;20043;-77
2023/01/25 07:46:02;;;;;;;48.72;32.13;;;2.10;99.90;;;;;;5077159;28;20083;-77
2023/01/25 07:48:29;;;;;;;46.17;30.23;;;2.00;99.90;;;;;;5075952;28;20048;-77
2023/01/25 07:51:11;;;;;;;48.85;31.67;;;2.00;99.90;;;;;;5069292;28;20065;-77
2023/01/25 07:53:38;;;;;;;49.20;32.47;;;2.00;99.90;;;;;;5076961;28;20350;-77
2023/01/25 07:56:04;;;;;;;51.83;31.77;;;2.00;99.90;;;;;;5076261;28;20041;-77
2023/01/25 07:58:31;;;;;;;49.42;30.52;;;2.00;99.90;;;;;;5076320;28;20131;-77
2023/01/25 08:00:58;;;;;;;48.40;30.02;;;2.00;99.90;;;;;;5076741;28;20435;-77
2023/01/25 08:03:25;;;;;;;47.40;29.35;;;2.00;99.90;;;;;;5054162;28;20059;-77
2023/01/25 08:05:51;;;;;;;54.13;31.52;;;1.90;99.90;;;;;;5076432;28;20052;-77
2023/01/25 08:08:18;;;;;;;46.10;29.45;;;1.90;99.90;;;;;;5075905;28;20467;-77
2023/01/25 08:10:45;;;;;;;44.55;27.30;;;2.00;99.90;;;;;;5074693;28;20055;-77
2023/01/25 08:13:11;;;;;;;49.80;27.90;;;2.00;99.90;;;;;;5055122;28;20032;-77
2023/01/25 08:15:39;;;;;;;40.70;25.20;;;2.00;99.90;;;;;;5057298;28;20411;-77
2023/01/25 08:18:05;;;;;;;47.70;27.48;;;1.90;99.90;;;;;;5039241;28;20044;-77
2023/01/25 08:20:32;;;;;;;42.50;27.92;;;1.80;99.90;;;;;;5038723;28;20043;-76
2023/01/25 08:23:00;;;;;;;47.53;25.77;;;1.80;99.90;;;;;;5037912;28;20075;-76
2023/01/25 08:25:26;;;;;;;42.55;25.95;;;1.80;99.90;;;;;;5038942;28;20044;-77
2023/01/25 08:27:53;;;;;;;39.20;25.50;;;1.80;99.90;;;;;;5056147;28;20057;-77
2023/01/25 08:30:20;;;;;;;50.65;30.13;;;1.90;99.90;;;;;;5055904;28;20467;-77
2023/01/25 08:32:47;;;;;;;46.28;26.08;;;1.90;99.90;;;;;;5038808;28;20052;-77
2023/01/25 08:35:14;;;;;;;48.20;27.42;;;1.90;99.90;;;;;;5056961;28;20044;-77
2023/01/25 08:37:41;;;;;;;46.17;25.60;;;1.90;99.90;;;;;;5038649;28;20040;-77
2023/01/25 08:40:07;;;;;;;46.38;27.20;;;1.80;99.90;;;;;;5055680;28;20045;-76
2023/01/25 08:42:35;;;;;;;39.00;24.33;;;1.90;99.90;;;;;;5028044;28;20041;-77
2023/01/25 08:45:01;;;;;;;47.55;26.73;;;1.80;99.90;;;;;;5038527;28;20048;-76
2023/01/25 08:47:28;;;;;;;48.97;27.23;;;1.80;99.90;;;;;;5002921;28;20144;-77
2023/01/25 08:49:54;;;;;;;49.60;28.42;;;1.80;99.90;;;;;;5034575;28;20356;-79
2023/01/25 08:52:21;;;;;;;49.67;29.95;;;1.90;99.90;;;;;;5035495;28;20049;-80
2023/01/25 08:54:49;;;;;;;49.58;27.98;;;1.90;99.90;;;;;;5019249;28;20042;-79
2023/01/25 08:57:16;;;;;;;47.95;26.48;;;1.90;99.90;;;;;;5035073;28;20448;-77
2023/01/25 08:59:43;;;;;;;46.67;26.55;;;1.90;99.90;;;;;;5017902;28;20041;-79
2023/01/25 09:02:10;;;;;;;48.00;28.15;;;2.00;99.90;;;;;;5034490;28;20120;-79
2023/01/25 09:04:37;;;;;;;48.15;26.35;;;2.10;99.90;;;;;;5017832;28;20050;-80
2023/01/25 09:07:04;;;;;;;47.05;26.67;;;2.10;99.90;;;;;;5029217;28;20040;-79
2023/01/25 09:09:31;;;;;;;47.50;27.23;;;2.00;99.90;;;;;;5037469;28;20550;-80
2023/01/25 09:11:58;;;;;;;44.72;25.80;;;2.00;99.90;;;;;;5038161;28;20037;-80
2023/01/25 09:14:25;;;;;;;43.33;26.88;;;2.00;99.90;;;;;;5056107;28;20384;-79
2023/01/25 09:16:51;;;;;;;43.90;22.95;;;2.00;99.90;;;;;;5064256;28;20055;-78
2023/01/25 09:19:18;;;;;;;42.70;26.67;;;2.00;99.90;;;;;;5067343;28;20051;-78
2023/01/25 09:21:46;;;;;;;44.30;26.23;;;2.10;99.90;;;;;;5055908;28;20356;-78
2023/01/25 09:24:13;;;;;;;43.42;25.98;;;2.10;99.90;;;;;;5074650;28;20055;-79
2023/01/25 09:26:40;;;;;;;49.10;29.45;;;2.10;99.90;;;;;;5073455;28;20411;-78
2023/01/25 09:29:10;;;;;;;42.55;26.10;;;2.20;99.90;;;;;;5056992;28;20044;-78
2023/01/25 09:31:38;;;;;;;50.53;28.58;;;2.20;99.90;;;;;;5071154;28;20567;-77
2023/01/25 09:34:11;;;;;;;46.13;26.75;;;2.30;99.90;;;;;;5061287;28;20370;-77
2023/01/25 09:36:38;;;;;;;44.17;26.52;;;2.20;99.90;;;;;;5073441;28;20063;-77
2023/01/25 09:39:04;;;;;;;45.95;27.80;;;2.20;99.90;;;;;;5074571;28;20037;-76
2023/01/25 09:41:31;;;;;;;52.00;27.92;;;2.20;99.90;;;;;;5056797;28;20044;-77
2023/01/25 09:43:59;;;;;;;53.50;29.20;;;2.10;99.90;;;;;;5073671;28;20394;-76
2023/01/25 09:46:40;;;;;;;45.33;27.95;;;2.00;99.90;;;;;;5074898;28;20135;-78
2023/01/25 09:49:06;;;;;;;52.08;28.60;;;2.00;99.90;;;;;;5072736;28;20119;-78
2023/01/25 09:51:35;;;;;;;50.28;26.45;;;2.00;99.90;;;;;;5073194;28;20550;-80
2023/01/25 09:54:02;;;;;;;46.90;26.55;;;2.00;99.90;;;;;;5074722;28;20371;-79
2023/01/25 09:56:29;;;;;;;50.90;29.05;;;2.10;99.90;;;;;;5073652;28;20045;-78
2023/01/25 09:58:56;;;;;;;44.80;24.98;;;2.10;99.90;;;;;;5073867;28;20070;-78
2023/01/25 10:01:22;;;;;;;45.95;26.33;;;2.20;99.90;;;;;;5073186;28;20044;-80
2023/01/25 10:04:04;;;;;;;48.42;27.60;;;2.30;99.90;;;;;;5074122;28;20048;-79
2023/01/25 10:06:30;;;;;;;54.47;26.38;;;2.30;99.90;;;;;;5073999;28;20055;-77
2023/01/25 10:08:57;;;;;;;53.75;25.73;;;2.40;99.90;;;;;;5072792;28;20032;-79
2023/01/25 10:11:24;;;;;;;42.50;25.70;;;2.40;99.90;;;;;;5074518;28;20056;-79
2023/01/25 10:13:51;;;;;;;44.22;25.98;;;2.40;99.90;;;;;;5074647;28;20040;-78
2023/01/25 10:16:17;;;;;;;54.58;26.80;;;2.50;99.90;;;;;;5072435;28;20475;-78
2023/01/25 10:18:51;;;;;;;43.55;25.92;;;2.50;99.90;;;;;;5073937;28;20427;-78
2023/01/25 10:21:18;;;;;;;40.70;24.73;;;2.50;99.90;;;;;;5056544;28;20463;-79
2023/01/25 10:23:45;;;;;;;46.08;26.58;;;2.40;99.90;;;;;;5072958;28;20046;-78
2023/01/25 10:26:12;;;;;;;49.20;24.80;;;2.50;99.90;;;;;;5056048;28;20455;-78
2023/01/25 10:28:39;;;;;;;42.78;24.13;;;2.50;99.90;;;;;;5054174;28;20052;-78
2023/01/25 10:31:05;;;;;;;44.72;26.92;;;2.50;99.90;;;;;;5053997;28;20041;-78
2023/01/25 10:33:32;;;;;;;45.35;24.75;;;2.60;99.90;;;;;;5053122;28;20037;-80
2023/01/25 10:36:02;;;;;;;50.25;28.05;;;2.70;99.90;;;;;;5052732;28;20049;-78
2023/01/25 10:38:28;;;;;;;43.63;24.27;;;2.70;99.90;;;;;;5069834;28;20371;-80
2023/01/25 10:40:55;;;;;;;40.88;22.45;;;2.80;99.90;;;;;;5073140;28;20045;-78
2023/01/25 10:43:22;;;;;;;40.42;23.55;;;2.80;99.90;;;;;;5054774;28;20352;-80
2023/01/25 10:45:49;;;;;;;39.10;21.35;;;2.80;99.90;;;;;;5063728;28;20032;-79
2023/01/25 10:48:16;;;;;;;38.40;23.08;;;2.90;99.90;;;;;;5062491;28;20116;-78
2023/01/25 10:50:45;;;;;;;39.15;20.58;;;2.90;99.90;;;;;;5063573;28;20363;-79
2023/01/25 10:53:12;;;;;;;39.85;20.35;;;2.90;99.90;;;;;;5063606;28;20367;-78
2023/01/25 10:55:39;;;;;;;39.25;21.95;;;3.10;99.90;;;;;;5063248;28;20049;-79
2023/01/25 10:58:05;;;;;;;35.22;18.73;;;3.20;99.90;;;;;;5064007;28;20056;-79
2023/01/25 11:00:32;;;;;;;37.88;20.17;;;3.30;99.90;;;;;;5059226;28;20041;-79
2023/01/25 11:02:59;;;;;;;37.78;21.13;;;3.30;99.90;;;;;;5052373;28;20132;-78
2023/01/25 11:05:25;;;;;;;31.88;18.17;;;3.30;99.90;;;;;;5053896;28;20044;-78
2023/01/25 11:07:52;;;;;;;31.08;17.95;;;3.40;99.90;;;;;;5053400;28;20033;-78
2023/01/25 11:10:19;;;;;;;30.27;19.25;;;3.50;99.90;;;;;;5051303;28;20040;-77
2023/01/25 11:12:45;;;;;;;31.98;17.15;;;3.60;99.90;;;;;;5052383;28;20052;-79
2023/01/25 11:15:12;;;;;;;30.10;17.17;;;3.70;99.90;;;;;;5050363;28;20053;-78
2023/01/25 11:17:39;;;;;;;30.77;17.52;;;3.80;99.90;;;;;;5015682;28;20038;-79
2023/01/25 11:20:06;;;;;;;29.70;15.20;;;3.90;99.90;;;;;;5011124;28;20033;-79
2023/01/25 11:22:33;;;;;;;22.85;14.38;;;4.10;99.90;;;;;;5030608;28;20037;-80
2023/01/25 11:25:00;;;;;;;22.42;13.88;;;4.30;99.90;;;;;;5015966;28;20052;-78
2023/01/25 11:27:27;;;;;;;26.17;16.48;;;4.40;99.90;;;;;;5026352;28;20044;-79
2023/01/25 11:29:53;;;;;;;25.98;14.43;;;4.40;99.90;;;;;;5034223;28;20044;-78
2023/01/25 11:32:21;;;;;;;22.65;14.00;;;4.40;99.90;;;;;;5035155;28;20060;-79
2023/01/25 11:34:48;;;;;;;24.02;13.65;;;4.50;99.90;;;;;;5036927;28;20075;-78
2023/01/25 11:37:14;;;;;;;25.02;14.38;;;4.50;99.90;;;;;;5048698;28;20103;-77
2023/01/25 11:39:42;;;;;;;25.35;13.90;;;4.60;99.90;;;;;;5030222;28;20045;-78
2023/01/25 11:42:09;;;;;;;21.10;12.60;;;4.60;99.90;;;;;;5029817;28;20057;-77
2023/01/25 11:44:35;;;;;;;23.85;13.35;;;4.60;99.90;;;;;;5028417;28;20045;-76
2023/01/25 11:47:02;;;;;;;25.42;15.38;;;4.60;99.90;;;;;;5044618;28;20048;-78
2023/01/25 11:49:29;;;;;;;22.23;12.40;;;4.70;99.90;;;;;;5029283;28;20071;-79
2023/01/25 11:51:55;;;;;;;23.17;12.77;;;4.80;99.90;;;;;;5033476;28;20460;-78
2023/01/25 11:54:22;;;;;;;22.40;12.55;;;4.90;99.90;;;;;;5056707;28;20068;-78
2023/01/25 11:56:49;;;;;;;21.48;13.73;;;5.00;99.90;;;;;;5037688;28;20037;-80
2023/01/25 11:59:16;;;;;;;19.95;12.05;;;5.10;99.90;;;;;;5023270;28;20460;-80
2023/01/25 12:01:42;;;;;;;18.58;10.00;;;5.10;99.90;;;;;;5039390;28;20083;-80
2023/01/25 12:04:10;;;;;;;13.70;8.18;;;5.20;99.90;;;;;;5031329;28;20045;-80
2023/01/25 12:06:37;;;;;;;13.05;9.05;;;5.20;99.90;;;;;;5035424;28;20045;-81
2023/01/25 12:09:04;;;;;;;12.60;7.90;;;5.30;99.90;;;;;;5038587;28;20053;-78
2023/01/25 12:11:30;;;;;;;13.20;8.73;;;5.30;99.90;;;;;;5055522;28;20060;-81
2023/01/25 12:14:00;;;;;;;12.90;8.30;;;5.30;99.90;;;;;;5038547;28;20048;-81
2023/01/25 12:16:27;;;;;;;11.00;7.00;;;5.30;99.90;;;;;;5061075;28;20053;-78
2023/01/25 12:18:54;;;;;;;11.65;6.40;;;5.30;99.90;;;;;;5075549;28;20090;-79
2023/01/25 12:21:22;;;;;;;10.07;5.82;;;5.40;99.90;;;;;;5079626;28;20371;-78
2023/01/25 12:23:58;;;;;;;8.38;4.32;;;5.50;99.90;;;;;;5095256;28;20059;-79
2023/01/25 12:26:26;;;;;;;9.10;5.47;;;5.50;99.90;;;;;;5059028;28;20071;-81
2023/01/25 12:28:52;;;;;;;8.52;5.50;;;5.60;99.90;;;;;;5071446;28;20545;-81
2023/01/25 12:31:19;;;;;;;10.50;6.47;;;5.50;99.90;;;;;;5061265;28;20500;-81
2023/01/25 12:33:47;;;;;;;9.55;6.55;;;5.60;99.90;;;;;;5055094;28;20052;-80
2023/01/25 12:36:14;;;;;;;10.93;5.80;;;5.60;99.90;;;;;;5054998;28;20049;-80
2023/01/25 12:38:40;;;;;;;9.70;6.03;;;5.60;99.90;;;;;;5056512;28;20041;-81
2023/01/25 12:41:07;;;;;;;11.32;6.38;;;5.50;99.90;;;;;;5055666;28;20048;-80
2023/01/25 12:43:34;;;;;;;8.75;5.68;;;5.40;99.90;;;;;;5054625;28;20056;-82
2023/01/25 12:46:00;;;;;;;10.27;6.05;;;5.40;99.90;;;;;;5055056;28;20048;-81
2023/01/25 12:48:27;;;;;;;11.63;7.88;;;5.40;99.90;;;;;;5038459;28;20482;-80
2023/01/25 12:50:54;;;;;;;13.05;7.65;;;5.40;99.90;;;;;;5072535;28;20052;-80
2023/01/25 12:53:21;;;;;;;14.88;8.23;;;5.30;99.90;;;;;;5078980;28;20094;-80
2023/01/25 12:55:48;;;;;;;15.32;9.57;;;5.30;99.90;;;;;;5058059;28;20483;-80
2023/01/25 12:58:14;;;;;;;14.75;9.60;;;5.30;99.90;;;;;;5075426;28;20058;-81